Terminal Aerodrome Forecast
Issued by NWS Grand Forks, ND

Home | Current Version | Previous Version | Graphics & Text | Print | Product List | Glossary On
Versions: 1 2 3 4 5 6 7 8 9 10 11 12 13 14 15 16
901
FTUS43 KFGF 221721
TAFFAR
TAF
KFAR 221721Z 2218/2318 04013KT P6SM BKN150
     FM230500 05008KT P6SM BKN100
     FM231400 10010KT P6SM OVC035=

USA.gov is the U.S. government's official web portal to all federal, state and local government web resources and services.